createdAt,value
2022-12-18T00:02:13.740Z,-1.00
2022-12-18T00:04:40.378Z,-1.00
2022-12-18T00:07:07.014Z,0.30
2022-12-18T00:09:40.242Z,-1.00
2022-12-18T00:14:45.484Z,-1.10
2022-12-18T00:17:12.238Z,-1.20
2022-12-18T00:19:38.851Z,-1.30
2022-12-18T00:22:07.018Z,-1.30
2022-12-18T00:24:33.663Z,-0.30
2022-12-18T00:27:00.300Z,0.50
2022-12-18T00:29:26.961Z,-0.20
2022-12-18T00:31:53.633Z,-1.50
2022-12-18T00:34:20.294Z,0.20
2022-12-18T00:36:47.264Z,-1.60
2022-12-18T00:39:13.905Z,-1.70
2022-12-18T00:41:59.394Z,-0.20
2022-12-18T00:44:26.066Z,-1.80
2022-12-18T00:46:52.661Z,-1.70
2022-12-18T00:49:19.924Z,-1.90
2022-12-18T00:51:47.096Z,-2.00
2022-12-18T00:54:13.764Z,-2.30
2022-12-18T00:56:48.338Z,-1.80
2022-12-18T00:59:15.890Z,-2.20
2022-12-18T01:01:42.607Z,-2.20
2022-12-18T01:04:09.478Z,-2.20
2022-12-18T01:06:36.142Z,-1.40
2022-12-18T01:09:03.154Z,-1.10
2022-12-18T01:11:29.904Z,0.20
2022-12-18T01:13:56.521Z,-2.30
2022-12-18T01:16:23.371Z,-1.60
2022-12-18T01:18:52.219Z,-1.80
2022-12-18T01:21:18.878Z,-0.20
2022-12-18T01:23:45.513Z,-1.70
2022-12-18T01:26:15.465Z,-1.00
2022-12-18T01:28:42.493Z,-2.40
2022-12-18T01:31:13.090Z,-2.50
2022-12-18T01:33:39.980Z,-2.10
2022-12-18T01:36:07.026Z,-1.80
2022-12-18T01:38:33.685Z,-2.50
2022-12-18T01:41:00.698Z,-2.60
2022-12-18T01:43:43.393Z,-0.60
2022-12-18T01:46:10.414Z,-2.70
2022-12-18T01:48:37.133Z,-2.70
2022-12-18T01:51:03.851Z,-2.80
2022-12-18T01:53:30.510Z,-2.50
2022-12-18T01:55:57.254Z,-2.80
2022-12-18T01:58:25.453Z,-2.80
2022-12-18T02:00:52.097Z,-2.80
2022-12-18T02:03:18.793Z,-0.90
2022-12-18T02:05:47.195Z,-2.90
2022-12-18T02:08:17.118Z,-2.50
2022-12-18T02:10:46.646Z,-2.90
2022-12-18T02:13:19.260Z,-2.90
2022-12-18T02:15:52.001Z,-3.00
2022-12-18T02:18:22.665Z,-2.90
2022-12-18T02:20:56.904Z,-3.00
2022-12-18T02:23:29.546Z,-3.00
2022-12-18T02:26:05.307Z,-3.00
2022-12-18T02:28:32.887Z,-3.00
2022-12-18T02:31:00.612Z,-3.00
2022-12-18T02:33:29.885Z,-3.10
2022-12-18T02:35:56.747Z,-3.00
2022-12-18T02:38:23.452Z,-3.20
2022-12-18T02:40:50.049Z,-1.70
2022-12-18T02:43:16.741Z,-3.20
2022-12-18T02:45:50.958Z,-2.30
2022-12-18T02:48:18.829Z,-3.20
2022-12-18T02:50:46.468Z,-3.10
2022-12-18T02:53:27.198Z,-3.20
2022-12-18T02:55:53.847Z,-3.30
2022-12-18T02:58:22.666Z,-3.30
2022-12-18T03:00:50.777Z,-3.40
2022-12-18T03:03:20.235Z,-3.40
2022-12-18T03:05:51.641Z,-3.40
2022-12-18T03:08:25.403Z,-3.50
2022-12-18T03:10:57.090Z,-3.40
2022-12-18T03:13:34.798Z,-3.40
2022-12-18T03:16:01.507Z,-3.40
2022-12-18T03:18:32.625Z,-3.50
2022-12-18T03:20:59.664Z,-3.50
2022-12-18T03:23:27.046Z,-2.60
2022-12-18T03:25:55.277Z,-3.60
2022-12-18T03:28:22.366Z,-3.70
2022-12-18T03:30:50.307Z,-3.70
2022-12-18T03:33:20.706Z,-3.70
2022-12-18T03:35:47.376Z,-3.70
2022-12-18T03:38:14.118Z,-2.90
2022-12-18T03:40:44.238Z,-2.10
2022-12-18T03:43:12.058Z,-3.80
2022-12-18T03:45:39.517Z,-3.80
2022-12-18T03:48:17.454Z,-3.90
2022-12-18T03:50:48.192Z,-3.90
2022-12-18T03:53:23.965Z,-3.90
2022-12-18T03:55:50.647Z,-3.90
2022-12-18T03:58:18.299Z,-2.90
2022-12-18T04:00:44.998Z,-3.90
2022-12-18T04:03:11.689Z,-3.80
2022-12-18T04:05:40.865Z,-2.70
2022-12-18T04:08:07.494Z,-3.90
2022-12-18T04:10:37.422Z,-1.70
2022-12-18T04:13:04.130Z,-3.80
2022-12-18T04:15:30.872Z,-3.90
2022-12-18T04:17:57.491Z,-3.90
2022-12-18T04:20:24.143Z,-3.80
2022-12-18T04:22:52.965Z,-3.90
2022-12-18T04:25:19.574Z,-2.30
2022-12-18T04:27:46.246Z,-3.90
2022-12-18T04:30:12.923Z,-3.90
2022-12-18T04:32:39.649Z,-3.80
2022-12-18T04:35:11.386Z,-3.90
2022-12-18T04:37:38.005Z,-4.00
2022-12-18T04:40:04.906Z,-2.60
2022-12-18T04:42:31.541Z,-3.90
2022-12-18T04:44:58.174Z,-3.80
2022-12-18T04:47:24.811Z,-4.00
2022-12-18T04:49:51.508Z,-3.40
2022-12-18T04:52:18.195Z,-4.10
2022-12-18T04:54:44.802Z,-4.10
2022-12-18T04:57:11.507Z,-4.10
2022-12-18T04:59:38.139Z,-3.50
2022-12-18T05:02:04.838Z,-4.10
2022-12-18T05:04:31.580Z,-3.90
2022-12-18T05:06:58.193Z,-3.70
2022-12-18T05:09:24.852Z,-2.40
2022-12-18T05:11:51.486Z,-3.70
2022-12-18T05:14:18.105Z,-4.00
2022-12-18T05:16:44.747Z,-3.10
2022-12-18T05:19:12.473Z,-4.00
2022-12-18T05:21:39.795Z,-3.90
2022-12-18T05:24:06.548Z,-3.80
2022-12-18T05:26:33.153Z,-3.70
2022-12-18T05:28:59.778Z,-2.60
2022-12-18T05:31:26.438Z,-2.40
2022-12-18T05:33:53.136Z,-3.40
2022-12-18T05:36:19.807Z,-1.80
2022-12-18T05:38:46.461Z,-3.80
2022-12-18T05:41:13.088Z,-3.50
2022-12-18T05:43:40.611Z,-4.10
2022-12-18T05:46:08.049Z,-4.10
2022-12-18T05:48:34.894Z,-4.20
2022-12-18T05:51:08.265Z,-4.10
2022-12-18T05:53:35.005Z,-4.00
2022-12-18T05:56:02.593Z,-3.90
2022-12-18T05:58:29.191Z,-3.90
2022-12-18T06:00:55.838Z,-1.90
2022-12-18T06:03:22.608Z,-4.20
2022-12-18T06:05:49.431Z,-4.30
2022-12-18T06:08:16.164Z,-4.30
2022-12-18T06:10:42.797Z,-4.30
2022-12-18T06:13:09.539Z,-4.40
2022-12-18T06:15:39.244Z,-4.30
2022-12-18T06:18:05.899Z,-4.90
2022-12-18T06:20:33.845Z,-4.20
2022-12-18T06:23:00.894Z,-2.40
2022-12-18T06:25:27.498Z,-4.40
2022-12-18T06:27:54.145Z,-4.50
2022-12-18T06:30:20.989Z,-2.80
2022-12-18T06:32:53.184Z,-4.40
2022-12-18T06:35:23.270Z,-4.20
2022-12-18T06:37:49.917Z,-3.40
2022-12-18T06:40:17.330Z,-2.20
2022-12-18T06:42:43.952Z,-3.90
2022-12-18T06:45:10.750Z,-4.30
2022-12-18T06:47:37.368Z,-4.30
2022-12-18T06:50:04.105Z,-3.90
2022-12-18T06:52:32.631Z,-4.50
2022-12-18T06:54:59.287Z,-4.50
2022-12-18T06:57:25.890Z,-2.90
2022-12-18T06:59:52.551Z,-4.50
2022-12-18T07:02:19.303Z,-4.00
2022-12-18T07:04:46.023Z,-4.40
2022-12-18T07:07:12.768Z,-2.70
2022-12-18T07:09:39.375Z,-4.20
2022-12-18T07:12:08.182Z,-3.80
2022-12-18T07:14:34.960Z,-3.80
2022-12-18T07:17:01.749Z,-3.60
2022-12-18T07:19:28.467Z,-3.40
2022-12-18T07:21:55.961Z,-2.70
2022-12-18T07:24:22.644Z,-1.00
2022-12-18T07:26:49.326Z,-0.80
2022-12-18T07:29:15.965Z,-1.40
2022-12-18T07:31:42.587Z,-2.40
2022-12-18T07:34:12.875Z,-2.30
2022-12-18T07:36:39.566Z,-2.00
2022-12-18T07:39:06.225Z,-1.80
2022-12-18T07:41:32.894Z,-0.90
2022-12-18T07:43:59.510Z,-1.40
2022-12-18T07:46:26.203Z,-1.30
2022-12-18T07:48:52.908Z,-0.30
2022-12-18T07:51:19.713Z,-1.10
2022-12-18T07:53:46.714Z,0.60
2022-12-18T07:56:31.786Z,-1.10
2022-12-18T07:58:59.030Z,-1.20
2022-12-18T08:01:26.013Z,0.20
2022-12-18T08:03:52.873Z,-1.10
2022-12-18T08:06:19.516Z,-1.00
2022-12-18T08:08:49.407Z,-0.90
2022-12-18T08:11:16.850Z,-0.50
2022-12-18T08:13:43.640Z,-0.90
2022-12-18T08:16:10.434Z,-0.80
2022-12-18T08:18:37.346Z,-0.80
2022-12-18T08:21:13.933Z,-0.70
2022-12-18T08:23:43.035Z,-0.70
2022-12-18T08:26:10.773Z,-0.50
2022-12-18T08:28:37.389Z,-1.00
2022-12-18T08:31:04.108Z,-1.10
2022-12-18T08:33:31.301Z,-1.30
2022-12-18T08:35:59.067Z,0.50
2022-12-18T08:38:25.738Z,-1.50
2022-12-18T08:41:02.135Z,-0.50
2022-12-18T08:43:50.640Z,-1.80
2022-12-18T08:46:17.704Z,-1.90
2022-12-18T08:48:44.672Z,-1.90
2022-12-18T08:51:11.435Z,-2.00
2022-12-18T08:53:38.936Z,-1.90
2022-12-18T08:56:06.091Z,-1.90
2022-12-18T08:58:32.844Z,-1.80
2022-12-18T09:01:03.103Z,-1.90
2022-12-18T09:03:29.993Z,-1.80
2022-12-18T09:05:56.781Z,-2.00
2022-12-18T09:08:23.418Z,-2.00
2022-12-18T09:10:50.385Z,-1.10
2022-12-18T09:13:17.151Z,-1.10
2022-12-18T09:15:50.985Z,-2.00
2022-12-18T09:18:17.852Z,-2.10
2022-12-18T09:20:44.502Z,-2.10
2022-12-18T09:23:11.243Z,-2.10
2022-12-18T09:25:37.947Z,-2.00
2022-12-18T09:28:07.034Z,-1.30
2022-12-18T09:30:35.170Z,-2.00
2022-12-18T09:33:02.650Z,-1.90
2022-12-18T09:35:29.245Z,-2.00
2022-12-18T09:37:56.067Z,-1.90
2022-12-18T09:40:23.974Z,-1.80
2022-12-18T09:42:55.373Z,-1.60
2022-12-18T09:45:22.098Z,-1.80
2022-12-18T09:47:48.823Z,-1.70
2022-12-18T09:50:18.586Z,-1.70
2022-12-18T09:52:46.361Z,-1.70
2022-12-18T09:55:26.287Z,-1.70
2022-12-18T09:57:54.202Z,-1.70
2022-12-18T10:00:21.724Z,-1.00
2022-12-18T10:02:48.666Z,-1.50
2022-12-18T10:05:17.960Z,0.00
2022-12-18T10:07:48.131Z,-1.60
2022-12-18T10:10:17.902Z,-1.80
2022-12-18T10:13:04.533Z,-1.90
2022-12-18T10:15:41.346Z,-1.90
2022-12-18T10:18:08.155Z,-1.90
2022-12-18T10:20:44.996Z,-1.90
2022-12-18T10:23:23.767Z,-1.90
2022-12-18T10:25:59.267Z,-1.90
2022-12-18T10:28:25.908Z,-2.00
2022-12-18T10:30:52.595Z,-2.00
2022-12-18T10:33:20.120Z,-0.20
2022-12-18T10:35:46.851Z,-2.00
2022-12-18T10:38:13.470Z,-1.90
2022-12-18T10:40:52.370Z,-1.90
2022-12-18T10:43:37.372Z,-1.80
2022-12-18T10:46:06.848Z,-1.80
2022-12-18T10:48:34.389Z,-1.90
2022-12-18T10:51:10.790Z,-1.90
2022-12-18T10:53:40.103Z,0.10
2022-12-18T10:56:06.904Z,-1.90
2022-12-18T10:58:34.582Z,-2.00
2022-12-18T11:01:13.555Z,-0.50
2022-12-18T11:03:44.368Z,-1.80
2022-12-18T11:06:12.156Z,-2.30
2022-12-18T11:08:39.305Z,-1.60
2022-12-18T11:11:08.325Z,-0.70
2022-12-18T11:13:34.992Z,-0.90
2022-12-18T11:16:01.739Z,-0.10
2022-12-18T11:18:33.005Z,-0.20
2022-12-18T11:21:00.829Z,-1.60
2022-12-18T11:23:27.692Z,-1.40
2022-12-18T11:25:55.502Z,-1.60
2022-12-18T11:28:42.028Z,-0.40
2022-12-18T11:31:11.062Z,-1.80
2022-12-18T11:33:38.381Z,-1.70
2022-12-18T11:36:08.087Z,-1.70
2022-12-18T11:38:38.814Z,-1.60
2022-12-18T11:41:05.739Z,-1.60
2022-12-18T11:43:51.223Z,-0.70
2022-12-18T11:46:37.732Z,-1.60
2022-12-18T11:49:08.935Z,-1.60
2022-12-18T11:51:36.411Z,-1.50
2022-12-18T11:54:05.892Z,-2.00
2022-12-18T11:56:40.424Z,-1.50
2022-12-18T11:59:13.850Z,-1.50
2022-12-18T12:01:55.622Z,-1.50
2022-12-18T12:04:42.735Z,-1.40
2022-12-18T12:07:12.403Z,-1.40
2022-12-18T12:10:01.686Z,-1.40
2022-12-18T12:12:48.769Z,-1.40
2022-12-18T12:15:18.620Z,-1.40
2022-12-18T12:17:54.403Z,-1.40
2022-12-18T12:20:39.898Z,-1.40
2022-12-18T12:23:15.732Z,-1.40
2022-12-18T12:25:58.167Z,-1.50
2022-12-18T12:28:24.811Z,-1.50
2022-12-18T12:30:55.539Z,-1.60
2022-12-18T12:33:29.822Z,-1.20
2022-12-18T12:36:00.517Z,-1.60
2022-12-18T12:38:32.861Z,-1.60
2022-12-18T12:41:04.024Z,-1.60
2022-12-18T12:46:27.064Z,-1.60
2022-12-18T12:48:54.424Z,-1.30
2022-12-18T12:51:22.335Z,-1.70
2022-12-18T12:53:49.122Z,-1.80
2022-12-18T12:56:16.795Z,-1.80
2022-12-18T12:58:47.104Z,-1.90
2022-12-18T13:01:16.227Z,-1.90
2022-12-18T13:03:46.802Z,-1.90
2022-12-18T13:06:16.859Z,0.40
2022-12-18T13:09:13.807Z,-2.00
2022-12-18T13:12:04.694Z,-2.00
2022-12-18T13:14:32.771Z,-2.00
2022-12-18T13:17:15.282Z,-1.90
2022-12-18T13:19:41.947Z,-2.00
2022-12-18T13:22:21.496Z,-1.90
2022-12-18T13:24:48.509Z,-2.00
2022-12-18T13:27:34.833Z,-2.00
2022-12-18T13:30:02.009Z,-2.00
2022-12-18T13:32:28.647Z,-0.70
2022-12-18T13:35:14.143Z,-2.00
2022-12-18T13:37:41.955Z,-2.00
2022-12-18T13:40:26.287Z,-1.00
2022-12-18T13:43:11.630Z,-2.10
2022-12-18T13:45:39.127Z,-1.90
2022-12-18T13:48:06.374Z,-2.20
2022-12-18T13:50:35.991Z,-2.20
2022-12-18T13:53:04.659Z,-2.20
2022-12-18T13:55:31.347Z,-2.20
2022-12-18T13:58:04.889Z,-2.20
2022-12-18T14:00:31.560Z,-2.20
2022-12-18T14:02:58.601Z,-2.30
2022-12-18T14:05:28.865Z,-2.30
2022-12-18T14:07:55.697Z,-3.80
2022-12-18T14:10:47.769Z,-2.30
2022-12-18T14:13:10.535Z,-1.90
2022-12-18T14:15:47.774Z,-2.10
2022-12-18T14:18:25.569Z,-2.30
2022-12-18T14:20:58.738Z,-2.30
2022-12-18T14:23:31.874Z,-2.30
2022-12-18T14:26:02.224Z,-2.30
2022-12-18T14:28:32.377Z,-2.20
2022-12-18T14:30:59.070Z,-2.30
2022-12-18T14:33:26.699Z,-2.30
2022-12-18T14:35:56.099Z,-2.20
2022-12-18T14:38:26.017Z,-2.30
2022-12-18T14:40:53.345Z,-2.30
2022-12-18T14:43:19.974Z,-1.50
2022-12-18T14:45:47.571Z,-2.30
2022-12-18T14:48:22.833Z,-2.30
2022-12-18T14:51:01.300Z,-2.30
2022-12-18T14:53:35.226Z,-2.30
2022-12-18T14:56:02.259Z,-2.30
2022-12-18T14:58:28.882Z,-2.10
2022-12-18T15:00:55.896Z,-0.20
2022-12-18T15:03:23.440Z,-0.50
2022-12-18T15:05:50.189Z,-2.40
2022-12-18T15:08:35.935Z,-2.40
2022-12-18T15:11:02.770Z,-2.40
2022-12-18T15:13:29.872Z,-1.10
2022-12-18T15:15:57.439Z,-0.90
2022-12-18T15:18:30.489Z,-0.50
2022-12-18T15:20:57.984Z,-2.40
2022-12-18T15:23:27.786Z,-1.80
2022-12-18T15:26:01.656Z,-2.40
2022-12-18T15:28:39.098Z,-2.40
2022-12-18T15:31:10.262Z,-2.40
2022-12-18T15:33:38.350Z,-2.40
2022-12-18T15:36:07.740Z,-2.50
2022-12-18T15:38:34.536Z,-2.20
2022-12-18T15:41:01.390Z,-2.50
2022-12-18T15:43:37.828Z,-2.50
2022-12-18T15:46:05.963Z,-2.40
2022-12-18T15:48:36.406Z,-2.40
2022-12-18T15:51:03.102Z,-2.30
2022-12-18T15:53:31.810Z,-2.30
2022-12-18T15:56:17.146Z,-2.40
2022-12-18T15:58:43.782Z,-2.30
2022-12-18T16:01:11.115Z,-0.90
2022-12-18T16:03:39.654Z,-2.30
2022-12-18T16:06:06.769Z,-2.40
2022-12-18T16:08:33.494Z,-2.20
2022-12-18T16:11:00.438Z,-2.20
2022-12-18T16:13:27.085Z,-1.90
2022-12-18T16:15:56.145Z,-2.10
2022-12-18T16:18:22.848Z,-0.70
2022-12-18T16:20:49.533Z,-2.10
2022-12-18T16:23:16.155Z,-1.80
2022-12-18T16:25:42.874Z,-2.00
2022-12-18T16:28:09.721Z,-1.70
2022-12-18T16:30:38.480Z,-0.70
2022-12-18T16:33:05.502Z,-0.70
2022-12-18T16:35:34.442Z,-1.90
2022-12-18T16:38:02.121Z,-0.90
2022-12-18T16:40:29.111Z,0.30
2022-12-18T16:42:56.783Z,-1.80
2022-12-18T16:45:23.447Z,-1.70
2022-12-18T16:47:50.303Z,-1.70
2022-12-18T16:50:17.012Z,-1.60
2022-12-18T16:52:43.999Z,-3.00
2022-12-18T16:55:10.933Z,-1.80
2022-12-18T16:57:38.682Z,-1.80
2022-12-18T17:00:06.287Z,-1.80
2022-12-18T17:02:33.552Z,-1.80
2022-12-18T17:05:00.543Z,-1.80
2022-12-18T17:07:28.083Z,-1.80
2022-12-18T17:09:55.967Z,-1.80
2022-12-18T17:12:23.135Z,-1.70
2022-12-18T17:14:49.827Z,-1.70
2022-12-18T17:17:22.369Z,-1.10
2022-12-18T17:19:50.320Z,-0.40
2022-12-18T17:22:17.672Z,-1.70
2022-12-18T17:24:44.589Z,-1.60
2022-12-18T17:27:11.416Z,-1.60
2022-12-18T17:29:41.281Z,-1.60
2022-12-18T17:32:13.817Z,0.60
2022-12-18T17:34:40.826Z,-1.60
2022-12-18T17:37:08.860Z,-0.10
2022-12-18T17:39:35.842Z,-1.50
2022-12-18T17:42:05.332Z,-1.50
2022-12-18T17:44:34.529Z,-1.40
2022-12-18T17:47:02.693Z,-1.50
2022-12-18T17:49:29.740Z,-0.60
2022-12-18T17:51:56.619Z,-1.10
2022-12-18T17:54:24.955Z,-1.60
2022-12-18T17:56:51.629Z,-1.60
2022-12-18T17:59:18.302Z,-1.50
2022-12-18T18:01:45.730Z,-1.50
2022-12-18T18:04:13.151Z,-1.50
2022-12-18T18:06:39.934Z,-1.40
2022-12-18T18:09:07.275Z,-1.00
2022-12-18T18:12:01.195Z,0.00
2022-12-18T18:14:27.866Z,0.70
2022-12-18T18:16:54.744Z,-1.20
2022-12-18T18:19:23.274Z,-1.30
2022-12-18T18:21:51.284Z,-1.30
2022-12-18T18:24:18.956Z,-1.40
2022-12-18T18:26:46.800Z,-1.40
2022-12-18T18:29:17.147Z,-1.40
2022-12-18T18:31:44.079Z,-0.50
2022-12-18T18:34:17.486Z,0.30
2022-12-18T18:36:45.461Z,-1.30
2022-12-18T18:39:12.375Z,-1.30
2022-12-18T18:41:39.046Z,-1.30
2022-12-18T18:44:06.142Z,-1.30
2022-12-18T18:46:33.026Z,-1.30
2022-12-18T18:48:59.757Z,-1.30
2022-12-18T18:51:31.485Z,-1.30
2022-12-18T18:54:01.403Z,-1.20
2022-12-18T18:56:56.182Z,-1.20
2022-12-18T18:59:15.424Z,-1.00
2022-12-18T19:01:42.275Z,-1.10
2022-12-18T19:04:09.124Z,-1.10
2022-12-18T19:06:35.762Z,-1.10
2022-12-18T19:09:03.367Z,-1.20
2022-12-18T19:11:52.315Z,-1.20
2022-12-18T19:14:19.132Z,-1.10
2022-12-18T19:16:45.900Z,-1.10
2022-12-18T19:19:13.028Z,0.00
2022-12-18T19:21:39.904Z,-0.30
2022-12-18T19:24:10.125Z,-1.10
2022-12-18T19:26:39.736Z,-1.20
2022-12-18T19:29:07.052Z,-1.20
2022-12-18T19:31:36.396Z,-1.00
2022-12-18T19:34:04.207Z,0.30
2022-12-18T19:36:31.469Z,0.30
2022-12-18T19:38:58.715Z,0.50
2022-12-18T19:41:29.121Z,-0.60
2022-12-18T19:43:58.617Z,-1.20
2022-12-18T19:46:25.492Z,-1.20
2022-12-18T19:48:52.274Z,-1.20
2022-12-18T19:51:22.866Z,-0.90
2022-12-18T19:53:52.478Z,0.40
2022-12-18T19:56:23.528Z,-1.20
2022-12-18T19:58:50.384Z,-1.20
2022-12-18T20:01:17.641Z,-0.70
2022-12-18T20:03:48.487Z,0.20
2022-12-18T20:06:29.575Z,-1.10
2022-12-18T20:08:59.080Z,-1.10
2022-12-18T20:11:28.183Z,-1.10
2022-12-18T20:13:54.922Z,-1.10
2022-12-18T20:16:21.811Z,-1.10
2022-12-18T20:18:51.484Z,-0.70
2022-12-18T20:21:19.021Z,-1.10
2022-12-18T20:23:46.082Z,-1.00
2022-12-18T20:26:12.960Z,-1.00
2022-12-18T20:28:40.450Z,-1.00
2022-12-18T20:31:08.456Z,-0.10
2022-12-18T20:33:40.460Z,-1.00
2022-12-18T20:36:08.085Z,0.00
2022-12-18T20:38:39.394Z,-1.00
2022-12-18T20:41:17.118Z,-1.00
2022-12-18T20:43:44.456Z,-1.00
2022-12-18T20:46:12.561Z,-0.90
2022-12-18T20:48:42.314Z,-1.00
2022-12-18T20:51:09.954Z,-1.00
2022-12-18T20:53:36.585Z,-1.00
2022-12-18T20:56:08.784Z,0.10
2022-12-18T20:58:36.083Z,-1.00
2022-12-18T21:01:06.820Z,-1.00
2022-12-18T21:03:36.366Z,-0.90
2022-12-18T21:06:03.474Z,-0.40
2022-12-18T21:08:30.063Z,-0.90
2022-12-18T21:10:56.700Z,-0.90
2022-12-18T21:13:23.877Z,-0.90
2022-12-18T21:15:52.964Z,-0.70
2022-12-18T21:18:20.586Z,-0.80
2022-12-18T21:20:47.409Z,-0.90
2022-12-18T21:23:16.349Z,-0.40
2022-12-18T21:25:44.408Z,-0.90
2022-12-18T21:28:13.207Z,-0.90
2022-12-18T21:30:40.122Z,-0.90
2022-12-18T21:33:07.950Z,-0.90
2022-12-18T21:35:34.578Z,-0.90
2022-12-18T21:38:05.746Z,-0.50
2022-12-18T21:40:32.763Z,-0.70
2022-12-18T21:43:17.975Z,-0.90
2022-12-18T21:45:47.104Z,-0.50
2022-12-18T21:48:13.774Z,1.20
2022-12-18T21:50:40.622Z,-0.90
2022-12-18T21:53:07.602Z,0.10
2022-12-18T21:55:34.439Z,-1.00
2022-12-18T21:58:01.065Z,-1.00
2022-12-18T22:00:27.725Z,-0.60
2022-12-18T22:03:00.496Z,-1.10
2022-12-18T22:05:41.196Z,-1.10
2022-12-18T22:08:07.935Z,-0.40
2022-12-18T22:10:35.038Z,-1.10
2022-12-18T22:13:02.205Z,-1.10
2022-12-18T22:15:29.078Z,-1.20
2022-12-18T22:18:00.137Z,-1.20
2022-12-18T22:20:27.546Z,-1.20
2022-12-18T22:22:54.551Z,-1.20
2022-12-18T22:25:21.291Z,-1.20
2022-12-18T22:28:08.066Z,-1.30
2022-12-18T22:30:35.364Z,-1.30
2022-12-18T22:33:02.730Z,-1.40
2022-12-18T22:35:29.798Z,-1.40
2022-12-18T22:38:01.180Z,-1.50
2022-12-18T22:40:28.152Z,-1.50
2022-12-18T22:42:56.130Z,-1.50
2022-12-18T22:45:23.309Z,-1.60
2022-12-18T22:47:50.131Z,-1.60
2022-12-18T22:50:16.968Z,-1.70
2022-12-18T22:52:43.738Z,-1.70
2022-12-18T22:55:10.461Z,-1.70
2022-12-18T22:57:38.178Z,-1.70
2022-12-18T23:00:09.559Z,-0.70
2022-12-18T23:02:36.525Z,-1.70
2022-12-18T23:05:09.014Z,-1.70
2022-12-18T23:07:35.624Z,-1.70
2022-12-18T23:10:02.518Z,-1.80
2022-12-18T23:12:29.890Z,-1.80
2022-12-18T23:14:56.706Z,-1.80
2022-12-18T23:17:23.461Z,-1.80
2022-12-18T23:19:50.098Z,-1.80
2022-12-18T23:22:17.086Z,-1.80
2022-12-18T23:24:46.571Z,-1.70
2022-12-18T23:27:13.295Z,-1.80
2022-12-18T23:29:40.431Z,-1.80
2022-12-18T23:32:07.188Z,-1.00
2022-12-18T23:34:33.825Z,-0.40
2022-12-18T23:37:01.154Z,-1.80
2022-12-18T23:39:29.511Z,-1.80
2022-12-18T23:41:59.658Z,-1.80
2022-12-18T23:44:31.089Z,-1.80
2022-12-18T23:46:57.727Z,-0.20
2022-12-18T23:49:24.459Z,-1.80
2022-12-18T23:51:53.467Z,-1.80
2022-12-18T23:54:21.107Z,-1.10
2022-12-18T23:56:55.410Z,-1.80
2022-12-18T23:59:25.432Z,-1.80
